Time;durP1;ratioP1;P1;durP2;ratioP2;P2;SDS_P1;SDS_P2;PMS_P1;PMS_P2;Temp;Humidity;BMP_temperature;BMP_pressure;BME280_temperature;BME280_humidity;BME280_pressure;Samples;Min_cycle;Max_cycle;Signal;HPM_P1;HPM_P2
2022/11/05 00:09:47;;;;;;;28.67;13.40;;;4.00;99.90;;;;;;5052444;28;20459;-51
2022/11/05 00:17:44;;;;;;;27.42;12.30;;;4.10;99.90;;;;;;5051269;28;20106;-50
2022/11/05 00:20:14;;;;;;;28.63;11.98;;;4.10;99.90;;;;;;5053059;28;20073;-50
2022/11/05 00:25:28;;;;;;;29.13;13.30;;;4.20;99.90;;;;;;5052880;28;20445;-50
2022/11/05 00:28:00;;;;;;;25.40;11.88;;;4.20;99.90;;;;;;5050815;28;20140;-49
2022/11/05 00:30:27;;;;;;;26.77;12.75;;;4.20;99.90;;;;;;5051210;28;20425;-50
2022/11/05 00:33:00;;;;;;;24.60;11.45;;;4.30;99.90;;;;;;5050836;28;20493;-50
2022/11/05 00:35:26;;;;;;;23.75;12.13;;;4.30;99.90;;;;;;5052964;28;20037;-50
2022/11/05 00:37:53;;;;;;;30.92;12.60;;;4.30;99.90;;;;;;5050855;28;20070;-53
2022/11/05 00:40:20;;;;;;;24.65;11.57;;;4.30;99.90;;;;;;5052713;28;20029;-50
2022/11/05 00:45:32;;;;;;;27.38;12.32;;;4.30;99.90;;;;;;5063926;22;20045;-52
2022/11/05 00:50:44;;;;;;;27.42;11.98;;;4.30;99.90;;;;;;5048946;28;20133;-52
2022/11/05 00:53:11;;;;;;;27.42;12.43;;;4.30;99.90;;;;;;5043982;28;20447;-49
2022/11/05 00:55:40;;;;;;;28.75;12.57;;;4.30;99.90;;;;;;5036215;28;20524;-51
2022/11/05 00:58:12;;;;;;;28.02;13.60;;;4.30;99.90;;;;;;5049827;28;20551;-50
2022/11/05 01:00:42;;;;;;;32.92;14.40;;;4.30;99.90;;;;;;5033775;28;20068;-51
2022/11/05 01:03:11;;;;;;;31.75;13.98;;;4.30;99.90;;;;;;5042748;28;20065;-51
2022/11/05 01:05:42;;;;;;;34.10;15.13;;;4.30;99.90;;;;;;5034979;28;20255;-49
2022/11/05 01:08:10;;;;;;;32.33;14.85;;;4.40;99.90;;;;;;5036334;28;20033;-50
2022/11/05 01:10:51;;;;;;;32.85;14.95;;;4.40;99.90;;;;;;5039512;28;20033;-49
2022/11/05 01:13:21;;;;;;;28.27;13.88;;;4.40;99.90;;;;;;5047655;28;20037;-52
2022/11/05 01:15:49;;;;;;;30.88;14.10;;;4.30;99.90;;;;;;5047086;28;20041;-49
2022/11/05 01:18:17;;;;;;;27.52;13.63;;;4.30;99.90;;;;;;5041281;28;20037;-51
2022/11/05 01:20:44;;;;;;;27.23;13.05;;;4.30;99.90;;;;;;5047638;28;20068;-49
2022/11/05 01:23:11;;;;;;;29.35;13.88;;;4.30;99.90;;;;;;5040738;28;20658;-50
2022/11/05 01:25:41;;;;;;;28.92;13.68;;;4.30;99.90;;;;;;5051154;28;20047;-50
2022/11/05 01:28:08;;;;;;;30.15;13.32;;;4.30;99.90;;;;;;5039242;28;20497;-51
2022/11/05 01:30:36;;;;;;;26.65;13.00;;;4.30;99.90;;;;;;5043200;28;20385;-49
2022/11/05 01:33:02;;;;;;;;;;;4.30;99.90;;;;;;5050631;28;20040;-51
2022/11/05 01:35:29;;;;;;;28.40;13.30;;;4.40;99.90;;;;;;5025728;28;19932;-53
2022/11/05 01:37:56;;;;;;;20.10;9.30;;;4.30;99.90;;;;;;5046026;28;20041;-49
2022/11/05 01:40:24;;;;;;;29.23;12.95;;;4.40;99.90;;;;;;5049128;28;20041;-49
2022/11/05 01:42:50;;;;;;;29.70;13.50;;;4.30;99.90;;;;;;5050139;28;20044;-48
2022/11/05 01:45:26;;;;;;;23.48;12.23;;;4.30;99.90;;;;;;5021070;28;20477;-50
2022/11/05 01:48:10;;;;;;;27.48;13.60;;;4.30;99.90;;;;;;5042719;28;20405;-52
2022/11/05 01:50:42;;;;;;;26.92;13.15;;;4.30;99.90;;;;;;5050034;28;20558;-49
2022/11/05 01:53:18;;;;;;;27.35;12.68;;;4.30;99.90;;;;;;5041407;28;20037;-53
2022/11/05 01:55:59;;;;;;;25.73;11.88;;;4.30;99.90;;;;;;5040263;28;20551;-51
2022/11/05 01:58:32;;;;;;;24.05;12.10;;;4.40;99.90;;;;;;5043389;28;20063;-48
2022/11/05 02:00:59;;;;;;;25.33;12.10;;;4.30;99.90;;;;;;5043989;28;20175;-51
2022/11/05 02:03:27;;;;;;;23.25;11.95;;;4.40;99.90;;;;;;5040219;28;20127;-48
2022/11/05 02:05:56;;;;;;;26.10;11.55;;;4.30;99.90;;;;;;5045578;28;20386;-49
2022/11/05 02:08:47;;;;;;;23.98;10.68;;;4.30;99.90;;;;;;5048808;28;20072;-51
2022/11/05 02:11:17;;;;;;;24.20;11.63;;;4.30;99.90;;;;;;5045420;28;20524;-48
2022/11/05 02:13:45;;;;;;;23.30;11.05;;;4.40;99.90;;;;;;5046455;28;20041;-52
2022/11/05 02:16:22;;;;;;;21.00;10.88;;;4.30;99.90;;;;;;5044402;28;20520;-49
2022/11/05 02:19:09;;;;;;;23.20;10.82;;;4.30;99.90;;;;;;5049414;28;20041;-49
2022/11/05 02:21:53;;;;;;;21.92;10.80;;;4.30;99.90;;;;;;5048862;28;20068;-50
2022/11/05 02:24:28;;;;;;;25.48;11.45;;;4.30;99.90;;;;;;5050398;28;20107;-48
2022/11/05 02:27:03;;;;;;;25.67;12.35;;;4.30;99.90;;;;;;5041464;28;20072;-49
2022/11/05 02:29:47;;;;;;;23.60;11.27;;;4.40;99.90;;;;;;5050770;28;20107;-48
2022/11/05 02:32:32;;;;;;;25.15;12.35;;;4.40;99.90;;;;;;5043505;28;20041;-49
2022/11/05 02:35:25;;;;;;;23.10;10.60;;;4.30;99.90;;;;;;5049413;28;20087;-49
2022/11/05 02:38:15;;;;;;;20.50;9.50;;;4.30;99.90;;;;;;5032252;28;20069;-48
2022/11/05 02:41:22;;;;;;;20.33;9.48;;;4.30;99.90;;;;;;5041958;28;20064;-49
2022/11/05 02:44:16;;;;;;;22.70;11.15;;;4.30;99.90;;;;;;4980808;28;20140;-50
2022/11/05 02:47:02;;;;;;;24.70;12.13;;;4.30;99.90;;;;;;5036314;28;20121;-48
2022/11/05 02:49:42;;;;;;;24.98;11.73;;;4.30;99.90;;;;;;5049554;28;20041;-49
2022/11/05 02:52:21;;;;;;;21.85;11.35;;;4.30;99.90;;;;;;5048822;28;20548;-49
2022/11/05 02:55:07;;;;;;;26.33;11.88;;;4.30;99.90;;;;;;5050643;28;20124;-49
2022/11/05 02:57:35;;;;;;;25.80;12.63;;;4.30;99.90;;;;;;5044576;28;20148;-49
2022/11/05 03:00:27;;;;;;;25.88;12.60;;;4.30;99.90;;;;;;5050254;28;20067;-51
2022/11/05 03:02:53;;;;;;;26.58;12.50;;;4.30;99.90;;;;;;5030385;28;20577;-48
2022/11/05 03:05:28;;;;;;;28.42;12.75;;;4.30;99.90;;;;;;5030105;28;20056;-48
2022/11/05 03:08:10;;;;;;;23.92;11.70;;;4.30;99.90;;;;;;5050787;28;20049;-49
2022/11/05 03:10:49;;;;;;;24.70;12.07;;;4.30;99.90;;;;;;5049187;28;20072;-49
2022/11/05 03:13:38;;;;;;;25.70;10.90;;;4.30;99.90;;;;;;5044747;28;20124;-49
2022/11/05 03:16:16;;;;;;;25.65;12.05;;;4.30;99.90;;;;;;5049011;28;20033;-48
2022/11/05 03:18:57;;;;;;;20.20;10.27;;;4.30;99.90;;;;;;5050298;28;20076;-48
2022/11/05 03:21:35;;;;;;;21.92;10.38;;;4.20;99.90;;;;;;5044259;28;20378;-49
2022/11/05 03:24:16;;;;;;;19.52;9.57;;;4.20;99.90;;;;;;5049731;28;20061;-52
2022/11/05 03:27:01;;;;;;;23.10;10.32;;;4.20;99.90;;;;;;5048413;28;20120;-49
2022/11/05 03:29:35;;;;;;;24.10;10.50;;;4.10;99.90;;;;;;5049353;28;20621;-48
2022/11/05 03:32:04;;;;;;;26.70;10.63;;;4.10;99.90;;;;;;5045532;28;20126;-51
2022/11/05 03:34:35;;;;;;;22.50;10.43;;;4.10;99.90;;;;;;5049032;28;20091;-48
2022/11/05 03:37:04;;;;;;;22.08;10.50;;;4.10;99.90;;;;;;5049159;28;20073;-49
2022/11/05 03:39:41;;;;;;;23.80;10.95;;;4.10;99.90;;;;;;5040172;28;20084;-49
2022/11/05 03:42:13;;;;;;;25.88;10.80;;;4.10;99.90;;;;;;5049298;28;20087;-49
2022/11/05 03:44:44;;;;;;;20.77;11.07;;;4.10;99.90;;;;;;5049907;28;20083;-49
2022/11/05 03:47:16;;;;;;;22.40;11.60;;;4.20;99.90;;;;;;5053609;28;20057;-52
2022/11/05 03:50:06;;;;;;;22.20;10.60;;;4.10;99.90;;;;;;5047290;28;20040;-49
2022/11/05 03:52:38;;;;;;;22.88;10.45;;;4.20;99.90;;;;;;5052754;28;20072;-49
2022/11/05 03:55:06;;;;;;;22.27;10.27;;;4.30;99.90;;;;;;5052841;28;20069;-49
2022/11/05 03:57:37;;;;;;;20.17;10.48;;;4.30;99.90;;;;;;5042776;28;20094;-53
2022/11/05 04:00:08;;;;;;;22.60;10.32;;;4.30;99.90;;;;;;5052895;28;20061;-49
2022/11/05 04:02:37;;;;;;;23.77;11.57;;;4.30;99.90;;;;;;5051559;28;20589;-49
2022/11/05 04:05:05;;;;;;;21.83;10.48;;;4.30;99.90;;;;;;5052521;28;20052;-49
2022/11/05 04:18:33;;;;;;;25.50;11.77;;;4.30;99.90;;;;;;5052228;28;20098;-49
2022/11/05 04:26:30;;;;;;;21.58;11.07;;;4.40;99.90;;;;;;5049268;28;20094;-49
2022/11/05 04:31:42;;;;;;;22.15;10.30;;;4.40;99.90;;;;;;5051552;28;20076;-50
2022/11/05 04:34:09;;;;;;;20.30;10.43;;;4.40;99.90;;;;;;5052183;28;20079;-49
2022/11/05 04:36:36;;;;;;;21.23;9.63;;;4.30;99.90;;;;;;5043070;28;20116;-51
2022/11/05 04:39:03;;;;;;;19.90;9.75;;;4.30;99.90;;;;;;5052820;28;20068;-50
2022/11/05 04:41:29;;;;;;;22.42;9.88;;;4.30;99.90;;;;;;5051578;28;20068;-50
2022/11/05 04:43:56;;;;;;;20.70;9.85;;;4.40;99.90;;;;;;5045663;28;20817;-49
2022/11/05 04:46:23;;;;;;;19.15;8.82;;;4.40;99.90;;;;;;5043276;28;20119;-52
2022/11/05 04:48:49;;;;;;;13.18;5.82;;;4.40;99.90;;;;;;5052916;28;20120;-49
2022/11/05 04:51:16;;;;;;;10.90;6.00;;;4.40;99.90;;;;;;5045870;28;20703;-49
2022/11/05 04:53:43;;;;;;;11.80;5.50;;;4.40;99.90;;;;;;5052333;28;20116;-50
2022/11/05 04:56:22;;;;;;;14.02;7.07;;;4.40;99.90;;;;;;5049993;28;20586;-48
2022/11/05 04:58:49;;;;;;;17.98;8.20;;;4.40;99.90;;;;;;5052969;28;20041;-49
2022/11/05 05:01:22;;;;;;;18.23;9.38;;;4.40;99.90;;;;;;5042448;28;20120;-49
2022/11/05 05:03:50;;;;;;;17.63;9.48;;;4.40;99.90;;;;;;5052359;28;20044;-49
2022/11/05 05:06:17;;;;;;;19.30;9.27;;;4.40;99.90;;;;;;5050670;28;20552;-49
2022/11/05 05:08:47;;;;;;;21.70;9.82;;;4.40;99.90;;;;;;5044726;28;20412;-49
2022/11/05 05:11:15;;;;;;;20.63;10.02;;;4.40;99.90;;;;;;5050803;28;20072;-50
2022/11/05 05:13:42;;;;;;;20.80;9.57;;;4.40;99.90;;;;;;5051670;28;20128;-49
2022/11/05 05:16:20;;;;;;;20.17;9.70;;;4.40;99.90;;;;;;5019735;28;20135;-49
2022/11/05 05:18:47;;;;;;;16.55;8.13;;;4.40;99.90;;;;;;5045638;28;20382;-49
2022/11/05 05:24:02;;;;;;;19.77;10.15;;;4.40;99.90;;;;;;5052055;28;20072;-51
2022/11/05 05:26:29;;;;;;;21.42;10.55;;;4.40;99.90;;;;;;5048463;28;20508;-49
2022/11/05 05:28:55;;;;;;;23.23;10.23;;;4.50;99.90;;;;;;5051727;28;20083;-49
2022/11/05 05:31:22;;;;;;;20.92;10.13;;;4.40;99.90;;;;;;5041476;28;20092;-49
2022/11/05 05:33:52;;;;;;;21.73;10.32;;;4.40;99.90;;;;;;5050882;28;20067;-51
2022/11/05 05:36:20;;;;;;;19.33;8.48;;;4.40;99.90;;;;;;5050214;28;20094;-51
2022/11/05 05:38:47;;;;;;;18.20;8.70;;;4.40;99.90;;;;;;5033354;28;20080;-50
2022/11/05 05:41:14;;;;;;;15.50;7.72;;;4.50;99.90;;;;;;5042004;28;20068;-49
2022/11/05 05:43:41;;;;;;;13.90;6.95;;;4.50;99.90;;;;;;5038981;28;20084;-48
2022/11/05 05:46:11;;;;;;;11.20;5.55;;;4.40;99.90;;;;;;5040281;28;20505;-51
2022/11/05 05:48:38;;;;;;;12.90;6.53;;;4.40;99.90;;;;;;5041928;28;20128;-51
2022/11/05 05:51:07;;;;;;;13.80;6.25;;;4.40;99.90;;;;;;5042773;28;20469;-48
2022/11/05 05:53:34;;;;;;;13.73;6.63;;;4.40;99.90;;;;;;5032178;28;20129;-49
2022/11/05 05:56:02;;;;;;;12.00;6.25;;;4.50;99.90;;;;;;5050521;28;20075;-49
2022/11/05 05:58:34;;;;;;;;;;;4.50;99.90;;;;;;5050937;28;20559;-52
2022/11/05 06:01:03;;;;;;;16.20;7.70;;;4.50;99.90;;;;;;5043195;28;19959;-50
2022/11/05 06:03:30;;;;;;;15.43;7.45;;;4.50;99.90;;;;;;5038001;28;20049;-49
2022/11/05 06:06:11;;;;;;;16.90;7.63;;;4.50;99.90;;;;;;5045993;28;20072;-51
2022/11/05 06:08:39;;;;;;;18.35;8.23;;;4.60;99.90;;;;;;5036111;28;20112;-49
2022/11/05 06:11:06;;;;;;;16.45;8.05;;;4.60;99.90;;;;;;5046008;28;20535;-50
2022/11/05 06:13:33;;;;;;;;;;;4.60;99.90;;;;;;5049093;28;20703;-50
2022/11/05 06:16:01;;;;;;;17.40;8.65;;;4.60;99.90;;;;;;5051472;28;19931;-51
2022/11/05 06:18:30;;;;;;;17.60;8.13;;;4.60;99.90;;;;;;5041734;28;20041;-49
2022/11/05 06:21:04;;;;;;;21.88;9.80;;;4.60;99.90;;;;;;5051105;28;20065;-49
2022/11/05 06:23:32;;;;;;;20.10;9.77;;;4.60;99.90;;;;;;5048900;28;20072;-49
2022/11/05 06:26:00;;;;;;;19.02;10.02;;;4.60;99.90;;;;;;5050627;28;20069;-52
2022/11/05 06:28:28;;;;;;;20.83;9.93;;;4.60;99.90;;;;;;5044368;28;20072;-48
2022/11/05 06:30:56;;;;;;;23.95;12.23;;;4.60;99.90;;;;;;5050921;28;20457;-49
2022/11/05 06:33:23;;;;;;;34.67;16.83;;;4.60;99.90;;;;;;5032067;28;20052;-49
2022/11/05 06:35:50;;;;;;;38.10;18.67;;;4.60;99.90;;;;;;5044248;28;20069;-50
2022/11/05 06:38:17;;;;;;;24.20;11.73;;;4.60;99.90;;;;;;5049618;28;20075;-52
2022/11/05 06:40:44;;;;;;;21.15;10.93;;;4.60;99.90;;;;;;5050629;28;20492;-48
2022/11/05 06:43:10;;;;;;;38.72;19.00;;;4.60;99.90;;;;;;5043072;28;20080;-51
2022/11/05 06:45:38;;;;;;;40.75;21.02;;;4.60;99.90;;;;;;5064418;22;20040;-46
2022/11/05 06:48:05;;;;;;;29.55;14.35;;;4.60;99.90;;;;;;5052272;28;20090;-48
2022/11/05 06:50:31;;;;;;;27.70;13.98;;;4.60;99.90;;;;;;5050116;28;20040;-48
2022/11/05 06:53:00;;;;;;;26.83;13.35;;;4.60;99.90;;;;;;5054499;28;20540;-49
2022/11/05 06:55:29;;;;;;;26.38;13.30;;;4.70;99.90;;;;;;5052315;28;20466;-48
2022/11/05 06:57:57;;;;;;;29.83;13.40;;;4.70;99.90;;;;;;5066292;28;20044;-51
2022/11/05 07:00:24;;;;;;;25.77;13.05;;;4.60;99.90;;;;;;5068703;28;20049;-49
2022/11/05 07:02:50;;;;;;;24.38;11.30;;;4.70;99.90;;;;;;5069169;28;20068;-50
2022/11/05 07:05:17;;;;;;;29.80;12.15;;;4.70;99.90;;;;;;5069383;28;20107;-49
2022/11/05 07:07:44;;;;;;;27.08;12.23;;;4.80;99.90;;;;;;5064317;28;20111;-49
2022/11/05 07:10:14;;;;;;;26.52;12.38;;;4.80;99.90;;;;;;5070305;28;20041;-46
2022/11/05 07:12:41;;;;;;;27.80;14.23;;;4.80;99.90;;;;;;5069480;28;20076;-47
2022/11/05 07:15:09;;;;;;;;;;;4.80;99.90;;;;;;5066397;28;20072;-50
2022/11/05 07:17:35;;;;;;;28.67;13.45;;;4.80;99.90;;;;;;5062314;28;19986;-50
2022/11/05 07:20:04;;;;;;;18.35;8.48;;;4.80;99.90;;;;;;5071163;28;20071;-48
2022/11/05 07:22:32;;;;;;;26.08;12.60;;;4.80;99.90;;;;;;5074203;28;20076;-53
2022/11/05 07:24:59;;;;;;;30.45;14.35;;;4.80;99.90;;;;;;5072614;28;20036;-51
2022/11/05 07:27:25;;;;;;;28.38;13.25;;;4.80;99.90;;;;;;5066630;28;20079;-52
2022/11/05 07:29:52;;;;;;;26.58;13.43;;;4.80;99.90;;;;;;5073391;28;20052;-51
2022/11/05 07:32:19;;;;;;;27.23;13.77;;;4.90;99.90;;;;;;5073908;28;20072;-47
2022/11/05 07:34:46;;;;;;;32.80;14.68;;;4.90;99.90;;;;;;5068537;28;20079;-49
2022/11/05 07:37:15;;;;;;;28.40;14.55;;;5.00;99.90;;;;;;5074386;28;20102;-47
2022/11/05 07:39:42;;;;;;;35.78;16.23;;;5.00;99.90;;;;;;5072777;28;20033;-49
2022/11/05 07:42:12;;;;;;;31.85;14.48;;;5.00;99.90;;;;;;5074173;28;20102;-51
2022/11/05 07:44:39;;;;;;;30.80;13.93;;;5.10;99.90;;;;;;5046106;28;20044;-48
2022/11/05 07:47:06;;;;;;;33.50;15.57;;;5.20;99.90;;;;;;5074114;28;20044;-48
2022/11/05 07:49:33;;;;;;;32.95;15.13;;;5.20;99.90;;;;;;5071755;28;20076;-48
2022/11/05 07:51:59;;;;;;;23.38;10.65;;;5.30;99.90;;;;;;5067728;28;20060;-50
2022/11/05 07:54:26;;;;;;;33.45;14.65;;;5.30;99.90;;;;;;5072181;28;20490;-50
2022/11/05 07:56:53;;;;;;;31.17;13.75;;;5.40;99.90;;;;;;5073038;28;20044;-51
2022/11/05 07:59:20;;;;;;;28.50;13.02;;;5.50;99.90;;;;;;5053278;28;20065;-49
2022/11/05 08:01:46;;;;;;;28.80;13.25;;;5.70;99.90;;;;;;5072745;28;20538;-52
2022/11/05 08:04:13;;;;;;;25.98;13.18;;;5.70;99.90;;;;;;5072377;28;20441;-49
2022/11/05 08:06:40;;;;;;;28.23;12.77;;;5.80;99.90;;;;;;5073267;28;20106;-49
2022/11/05 08:09:07;;;;;;;28.73;14.43;;;5.80;99.90;;;;;;5068437;28;20082;-49
2022/11/05 08:11:34;;;;;;;;;;;5.70;99.90;;;;;;5070582;28;20076;-48
2022/11/05 08:14:01;;;;;;;25.02;11.65;;;5.70;99.90;;;;;;5072218;28;19973;-48
2022/11/05 08:16:28;;;;;;;26.83;12.45;;;5.70;99.90;;;;;;5073163;28;20052;-49
2022/11/05 08:18:54;;;;;;;26.98;12.50;;;5.70;99.90;;;;;;5070735;28;20071;-48
2022/11/05 08:21:21;;;;;;;29.40;13.25;;;5.70;99.90;;;;;;5072631;28;20066;-48
2022/11/05 08:23:48;;;;;;;26.20;12.32;;;5.70;99.90;;;;;;5072064;28;20477;-49
2022/11/05 08:26:14;;;;;;;26.27;12.45;;;5.70;99.90;;;;;;5071825;28;20098;-49
2022/11/05 08:28:41;;;;;;;22.85;11.18;;;5.80;99.90;;;;;;5072601;28;20037;-48
2022/11/05 08:31:08;;;;;;;18.95;9.10;;;5.80;99.90;;;;;;5071206;28;20044;-48
2022/11/05 08:33:35;;;;;;;23.17;11.23;;;5.80;99.90;;;;;;5071825;28;20029;-48
2022/11/05 08:36:03;;;;;;;21.92;11.05;;;5.80;99.90;;;;;;5069641;28;20123;-48
2022/11/05 08:38:30;;;;;;;25.50;11.73;;;5.80;99.90;;;;;;5072298;28;20083;-48
2022/11/05 08:40:57;;;;;;;21.17;11.30;;;5.80;99.90;;;;;;5071840;28;20036;-48
2022/11/05 08:43:24;;;;;;;24.27;11.77;;;5.80;99.90;;;;;;5068420;28;20069;-48
2022/11/05 08:45:51;;;;;;;23.30;11.38;;;5.80;99.90;;;;;;5066141;28;20445;-48
2022/11/05 08:48:18;;;;;;;20.30;10.07;;;5.80;99.90;;;;;;5071719;28;20090;-48
2022/11/05 08:50:47;;;;;;;26.23;11.93;;;5.80;99.90;;;;;;5072481;28;20518;-48
2022/11/05 08:53:14;;;;;;;23.52;10.88;;;5.90;99.90;;;;;;5049903;28;20080;-47
2022/11/05 08:55:42;;;;;;;24.75;12.00;;;6.00;99.90;;;;;;5072156;28;20040;-49
2022/11/05 08:58:13;;;;;;;20.80;10.50;;;6.10;99.90;;;;;;5070412;28;20047;-49
2022/11/05 09:00:41;;;;;;;26.85;11.10;;;6.10;99.90;;;;;;5056457;28;20063;-48
2022/11/05 09:03:08;;;;;;;23.08;11.25;;;6.10;99.90;;;;;;5070279;28;20029;-48
2022/11/05 09:05:38;;;;;;;22.65;11.20;;;6.10;99.90;;;;;;5050613;28;20052;-52
2022/11/05 09:08:06;;;;;;;23.02;11.18;;;6.10;99.90;;;;;;5072376;28;20132;-49
2022/11/05 09:10:33;;;;;;;28.05;12.63;;;6.10;99.90;;;;;;5066305;28;20064;-48
2022/11/05 09:13:01;;;;;;;26.38;12.75;;;6.20;99.90;;;;;;5070133;28;20550;-48
2022/11/05 09:15:29;;;;;;;21.55;11.23;;;6.30;99.90;;;;;;5070962;28;20037;-48
2022/11/05 09:17:56;;;;;;;22.88;12.98;;;6.30;99.90;;;;;;5070962;28;20098;-51
2022/11/05 09:20:22;;;;;;;26.05;12.60;;;6.40;99.90;;;;;;5071213;28;20412;-52
2022/11/05 09:22:49;;;;;;;22.35;11.65;;;6.30;99.90;;;;;;5071295;28;20102;-47
2022/11/05 09:25:16;;;;;;;22.85;12.13;;;6.20;99.90;;;;;;5068200;28;20460;-48
2022/11/05 09:27:43;;;;;;;20.98;11.05;;;6.20;99.90;;;;;;5063804;28;20044;-47
2022/11/05 09:30:12;;;;;;;24.30;10.63;;;6.20;99.90;;;;;;5070873;28;20075;-47
2022/11/05 09:32:39;;;;;;;21.70;10.30;;;6.20;99.90;;;;;;5071697;28;20102;-48
2022/11/05 09:35:06;;;;;;;23.30;11.27;;;6.10;99.90;;;;;;5067672;28;20094;-47
2022/11/05 09:37:33;;;;;;;28.25;14.00;;;6.10;99.90;;;;;;5071522;28;20041;-48
2022/11/05 09:40:00;;;;;;;21.42;11.43;;;6.00;99.90;;;;;;5070301;28;20070;-48
2022/11/05 09:42:45;;;;;;;22.52;11.40;;;5.90;99.90;;;;;;5067924;28;20048;-49
2022/11/05 09:45:18;;;;;;;22.30;11.02;;;5.90;99.90;;;;;;5067522;28;20496;-47
2022/11/05 09:47:52;;;;;;;28.75;11.63;;;5.90;99.90;;;;;;5071147;28;20527;-48
2022/11/05 09:50:26;;;;;;;23.58;11.52;;;6.00;99.90;;;;;;5070939;28;20048;-48
2022/11/05 09:52:53;;;;;;;24.63;12.35;;;6.10;99.90;;;;;;5061730;28;20068;-51
2022/11/05 09:55:33;;;;;;;21.60;10.43;;;6.20;99.90;;;;;;5070612;28;20116;-48
2022/11/05 09:58:05;;;;;;;24.05;11.10;;;6.30;99.90;;;;;;5070980;28;20407;-49
2022/11/05 10:00:32;;;;;;;23.67;11.88;;;6.40;99.90;;;;;;5063460;28;20041;-49
2022/11/05 10:03:05;;;;;;;;;;;6.60;99.90;;;;;;5067466;28;20044;-48
2022/11/05 10:05:33;;;;;;;21.48;10.65;;;6.70;99.90;;;;;;5070380;28;20038;-48
2022/11/05 10:08:26;;;;;;;19.25;10.82;;;6.80;99.90;;;;;;5065770;28;20072;-49
2022/11/05 10:11:06;;;;;;;25.92;13.25;;;7.10;99.90;;;;;;5051346;28;20086;-48
2022/11/05 10:13:38;;;;;;;26.98;14.73;;;7.00;99.90;;;;;;5069487;28;20115;-48
2022/11/05 10:16:11;;;;;;;23.13;12.77;;;7.00;99.90;;;;;;5062274;28;20075;-50
2022/11/05 10:18:41;;;;;;;20.10;11.18;;;7.00;99.90;;;;;;5070108;28;20037;-48
2022/11/05 10:21:16;;;;;;;18.90;10.55;;;7.00;99.90;;;;;;5070657;28;20076;-48
2022/11/05 10:23:45;;;;;;;18.27;10.30;;;7.00;99.90;;;;;;5069944;28;20068;-51
2022/11/05 10:26:20;;;;;;;21.85;10.57;;;7.10;99.90;;;;;;5059444;28;20041;-49
2022/11/05 10:28:49;;;;;;;15.98;9.57;;;7.10;99.90;;;;;;5070292;28;20075;-50
2022/11/05 10:31:22;;;;;;;19.42;10.80;;;7.10;99.90;;;;;;5069550;28;20052;-48
2022/11/05 10:34:16;;;;;;;20.42;10.30;;;7.10;99.90;;;;;;5046390;28;20064;-47
2022/11/05 10:36:43;;;;;;;20.23;10.57;;;7.00;99.90;;;;;;5036185;28;20064;-50
2022/11/05 10:39:17;;;;;;;21.58;10.10;;;7.00;99.90;;;;;;5070134;28;20453;-48
2022/11/05 10:42:25;;;;;;;20.48;10.23;;;7.00;99.90;;;;;;5068716;28;20076;-49
2022/11/05 10:45:16;;;;;;;22.45;11.35;;;7.10;99.90;;;;;;4989438;28;20062;-48
2022/11/05 10:47:47;;;;;;;19.77;10.65;;;7.10;99.90;;;;;;4986271;28;20042;-48
2022/11/05 10:50:20;;;;;;;21.33;10.68;;;7.20;99.90;;;;;;5045620;28;20128;-49
2022/11/05 10:53:01;;;;;;;21.88;10.70;;;7.30;99.90;;;;;;5067920;28;20428;-50
2022/11/05 10:55:30;;;;;;;22.45;11.35;;;7.50;99.90;;;;;;5072224;28;20036;-49
2022/11/05 10:58:15;;;;;;;24.65;12.27;;;7.70;99.90;;;;;;5073724;28;20040;-48
2022/11/05 11:00:44;;;;;;;20.85;10.57;;;7.70;99.90;;;;;;5054890;28;20068;-48
2022/11/05 11:03:32;;;;;;;18.70;11.07;;;7.70;99.90;;;;;;5073705;28;20097;-49
2022/11/05 11:06:01;;;;;;;19.63;9.85;;;7.80;99.90;;;;;;5073155;28;20278;-48
2022/11/05 11:08:29;;;;;;;19.85;11.00;;;7.90;99.90;;;;;;5074556;28;20127;-49
2022/11/05 11:11:00;;;;;;;20.83;11.27;;;7.80;99.90;;;;;;5067765;28;20109;-48
2022/11/05 11:13:48;;;;;;;20.38;11.00;;;7.80;99.90;;;;;;5074282;28;20048;-47
2022/11/05 11:16:20;;;;;;;21.50;12.02;;;7.80;99.90;;;;;;5072710;28;20132;-48
2022/11/05 11:18:55;;;;;;;18.23;9.98;;;7.80;99.90;;;;;;5074364;28;20776;-49
2022/11/05 11:21:22;;;;;;;19.13;10.65;;;7.90;99.90;;;;;;5071555;28;20090;-48
2022/11/05 11:23:57;;;;;;;17.77;10.43;;;8.00;99.90;;;;;;5073863;28;20119;-48
2022/11/05 11:26:27;;;;;;;16.98;9.40;;;8.10;99.90;;;;;;5072221;28;20097;-47
2022/11/05 11:29:00;;;;;;;18.92;9.70;;;8.00;99.90;;;;;;5073956;28;20090;-48
2022/11/05 11:31:30;;;;;;;19.83;10.23;;;7.90;99.90;;;;;;5072263;28;20454;-48
2022/11/05 11:34:01;;;;;;;16.52;9.00;;;8.00;99.90;;;;;;5074108;28;20181;-49
2022/11/05 11:36:41;;;;;;;17.25;9.25;;;8.10;99.90;;;;;;5071435;28;20473;-48
2022/11/05 11:39:18;;;;;;;18.20;9.18;;;8.10;99.90;;;;;;5073260;28;20059;-48
2022/11/05 11:41:49;;;;;;;12.98;7.68;;;8.20;99.90;;;;;;5072551;28;20048;-48
2022/11/05 11:44:28;;;;;;;13.70;7.50;;;8.30;99.90;;;;;;5072542;28;20075;-49
2022/11/05 11:47:02;;;;;;;15.48;8.07;;;8.40;99.90;;;;;;5072044;28;20056;-47
2022/11/05 11:49:52;;;;;;;19.95;8.65;;;8.40;99.90;;;;;;5072620;28;20075;-51
2022/11/05 11:52:33;;;;;;;13.52;7.82;;;8.40;99.90;;;;;;5064572;28;20064;-48
2022/11/05 11:55:12;;;;;;;11.88;7.70;;;8.30;99.90;;;;;;5072287;28;20516;-48
2022/11/05 11:57:45;;;;;;;17.85;8.73;;;8.20;99.90;;;;;;5073349;28;20040;-48
2022/11/05 12:00:14;;;;;;;14.77;8.13;;;8.10;99.90;;;;;;5068795;28;20037;-50
2022/11/05 12:02:49;;;;;;;17.63;8.27;;;8.10;99.90;;;;;;5063962;28;20043;-49
2022/11/05 12:05:37;;;;;;;17.50;9.32;;;8.10;99.90;;;;;;5072545;28;20111;-48
2022/11/05 12:08:39;;;;;;;13.90;7.07;;;8.10;99.90;;;;;;5064104;28;20071;-49
2022/11/05 12:11:24;;;;;;;17.92;9.15;;;8.10;99.90;;;;;;5069444;28;20048;-48
2022/11/05 12:14:09;;;;;;;15.23;8.63;;;8.10;99.90;;;;;;5071758;28;20082;-49
2022/11/05 12:17:03;;;;;;;15.48;8.65;;;8.10;99.90;;;;;;5046147;28;20068;-48
2022/11/05 12:20:07;;;;;;;17.77;8.63;;;8.20;99.90;;;;;;5072671;28;20106;-49
2022/11/05 12:22:42;;;;;;;17.60;8.63;;;8.20;99.90;;;;;;5072411;28;20036;-48
2022/11/05 12:25:09;;;;;;;15.27;8.77;;;8.30;99.90;;;;;;5053031;28;20045;-48
2022/11/05 12:28:12;;;;;;;15.98;8.30;;;8.30;99.90;;;;;;5072019;28;20584;-49
2022/11/05 12:30:49;;;;;;;14.80;8.40;;;8.30;99.90;;;;;;5065670;28;20127;-48
2022/11/05 12:33:20;;;;;;;13.55;7.95;;;8.30;99.90;;;;;;5071683;28;20075;-50
2022/11/05 12:35:50;;;;;;;14.93;7.90;;;8.20;99.90;;;;;;5071777;28;20664;-48
2022/11/05 12:38:56;;;;;;;14.57;8.27;;;8.10;99.90;;;;;;5072308;28;20044;-49
2022/11/05 12:41:28;;;;;;;15.20;8.02;;;8.00;99.90;;;;;;5060921;28;20451;-50
2022/11/05 12:44:31;;;;;;;14.10;7.97;;;7.90;99.90;;;;;;5068499;28;20072;-51
2022/11/05 12:47:25;;;;;;;13.57;7.20;;;7.70;99.90;;;;;;5031551;28;20080;-48
2022/11/05 12:49:58;;;;;;;12.80;7.70;;;7.70;99.90;;;;;;5069347;28;20075;-48
2022/11/05 12:52:56;;;;;;;12.98;7.85;;;7.60;99.90;;;;;;5069334;28;20055;-53
2022/11/05 12:55:25;;;;;;;13.77;7.63;;;7.60;99.90;;;;;;5070525;28;20086;-48
2022/11/05 12:57:55;;;;;;;13.85;6.97;;;7.60;99.90;;;;;;5065127;28;20040;-49
2022/11/05 13:00:24;;;;;;;12.98;7.63;;;7.60;99.90;;;;;;5071107;28;20083;-50
2022/11/05 13:03:06;;;;;;;13.45;7.55;;;7.60;99.90;;;;;;5066654;28;20036;-48
2022/11/05 13:05:56;;;;;;;13.15;7.75;;;7.60;99.90;;;;;;5053333;28;20159;-48
2022/11/05 13:09:06;;;;;;;14.25;7.55;;;7.70;99.90;;;;;;5053434;22;20046;-51
2022/11/05 13:11:39;;;;;;;16.48;8.13;;;7.70;99.90;;;;;;5000819;28;20140;-51
2022/11/05 13:14:13;;;;;;;17.50;8.65;;;7.80;99.90;;;;;;4996601;28;20069;-51
2022/11/05 13:16:45;;;;;;;16.95;8.40;;;7.90;99.90;;;;;;4995664;28;20069;-51
2022/11/05 13:19:23;;;;;;;12.00;7.47;;;7.90;99.90;;;;;;4994619;28;20088;-50
2022/11/05 13:21:55;;;;;;;12.75;7.68;;;8.00;99.90;;;;;;4998024;28;20089;-51
2022/11/05 13:24:37;;;;;;;16.17;8.82;;;8.00;99.90;;;;;;4992402;28;20537;-51
2022/11/05 13:27:41;;;;;;;15.00;8.43;;;8.00;99.90;;;;;;4990724;28;20069;-51
2022/11/05 13:30:14;;;;;;;12.05;7.50;;;8.00;99.90;;;;;;5004377;28;20057;-48
2022/11/05 13:32:45;;;;;;;13.40;7.60;;;8.00;99.90;;;;;;4992202;28;20053;-50
2022/11/05 13:35:26;;;;;;;14.27;8.27;;;7.90;99.90;;;;;;4993892;28;20692;-53
2022/11/05 13:40:52;;;;;;;16.27;8.93;;;7.80;99.90;;;;;;4990014;28;20138;-50
2022/11/05 13:44:00;;;;;;;19.38;8.73;;;7.70;99.90;;;;;;4991984;28;20100;-52
2022/11/05 13:46:30;;;;;;;16.95;9.10;;;7.70;99.90;;;;;;4991479;28;20097;-51
2022/11/05 13:49:15;;;;;;;15.25;9.30;;;7.60;99.90;;;;;;4991769;28;20062;-50
2022/11/05 13:52:24;;;;;;;16.65;8.95;;;7.60;99.90;;;;;;4991968;28;20038;-50
2022/11/05 13:54:58;;;;;;;20.20;10.38;;;7.60;99.90;;;;;;4958453;28;20125;-52
2022/11/05 13:57:36;;;;;;;17.05;9.38;;;7.60;99.90;;;;;;4992095;28;20070;-53
2022/11/05 14:00:05;;;;;;;18.27;9.70;;;7.60;99.90;;;;;;4995933;28;20112;-51